sensor_id;sensor_type;location;lat;lon;timestamp;P1;durP1;ratioP1;P2;durP2;ratioP2
58468;SDS011;44257;44.804;10.220;2023-11-19T00:00:26;4.05;;;2.40;;
58468;SDS011;44257;44.804;10.220;2023-11-19T00:02:53;4.18;;;2.47;;
58468;SDS011;44257;44.804;10.220;2023-11-19T00:05:18;6.43;;;2.33;;
58468;SDS011;44257;44.804;10.220;2023-11-19T00:07:44;4.10;;;2.38;;
58468;SDS011;44257;44.804;10.220;2023-11-19T00:10:12;5.07;;;2.38;;
58468;SDS011;44257;44.804;10.220;2023-11-19T00:12:41;5.85;;;2.67;;
58468;SDS011;44257;44.804;10.220;2023-11-19T00:15:09;4.65;;;2.15;;
58468;SDS011;44257;44.804;10.220;2023-11-19T00:17:39;5.65;;;2.60;;
58468;SDS011;44257;44.804;10.220;2023-11-19T00:20:06;4.65;;;2.45;;
58468;SDS011;44257;44.804;10.220;2023-11-19T00:22:33;7.22;;;2.13;;
58468;SDS011;44257;44.804;10.220;2023-11-19T00:24:59;6.32;;;2.33;;
58468;SDS011;44257;44.804;10.220;2023-11-19T00:27:25;5.63;;;3.17;;
58468;SDS011;44257;44.804;10.220;2023-11-19T00:29:51;10.13;;;2.85;;
58468;SDS011;44257;44.804;10.220;2023-11-19T00:32:17;4.43;;;2.50;;
58468;SDS011;44257;44.804;10.220;2023-11-19T00:34:46;4.47;;;2.47;;
58468;SDS011;44257;44.804;10.220;2023-11-19T00:37:13;5.82;;;2.58;;
58468;SDS011;44257;44.804;10.220;2023-11-19T00:39:40;5.60;;;2.72;;
58468;SDS011;44257;44.804;10.220;2023-11-19T00:42:07;6.28;;;2.72;;
58468;SDS011;44257;44.804;10.220;2023-11-19T00:44:35;4.70;;;2.30;;
58468;SDS011;44257;44.804;10.220;2023-11-19T00:47:01;5.63;;;2.45;;
58468;SDS011;44257;44.804;10.220;2023-11-19T00:49:27;4.25;;;2.33;;
58468;SDS011;44257;44.804;10.220;2023-11-19T00:51:53;5.53;;;2.65;;
58468;SDS011;44257;44.804;10.220;2023-11-19T00:54:19;5.50;;;2.53;;
58468;SDS011;44257;44.804;10.220;2023-11-19T00:56:45;3.42;;;2.08;;
58468;SDS011;44257;44.804;10.220;2023-11-19T00:59:11;4.22;;;2.50;;
58468;SDS011;44257;44.804;10.220;2023-11-19T01:01:37;6.15;;;2.35;;
58468;SDS011;44257;44.804;10.220;2023-11-19T01:04:02;4.80;;;2.33;;
58468;SDS011;44257;44.804;10.220;2023-11-19T01:06:29;5.90;;;2.53;;
58468;SDS011;44257;44.804;10.220;2023-11-19T01:08:56;4.47;;;2.55;;
58468;SDS011;44257;44.804;10.220;2023-11-19T01:11:22;4.95;;;2.30;;
58468;SDS011;44257;44.804;10.220;2023-11-19T01:13:49;5.32;;;2.28;;
58468;SDS011;44257;44.804;10.220;2023-11-19T01:16:16;5.60;;;2.60;;
58468;SDS011;44257;44.804;10.220;2023-11-19T01:18:42;5.03;;;2.17;;
58468;SDS011;44257;44.804;10.220;2023-11-19T01:21:09;6.97;;;2.20;;
58468;SDS011;44257;44.804;10.220;2023-11-19T01:23:35;5.32;;;2.40;;
58468;SDS011;44257;44.804;10.220;2023-11-19T01:26:02;4.20;;;2.33;;
58468;SDS011;44257;44.804;10.220;2023-11-19T01:28:28;5.45;;;2.20;;
58468;SDS011;44257;44.804;10.220;2023-11-19T01:30:56;5.78;;;2.20;;
58468;SDS011;44257;44.804;10.220;2023-11-19T01:33:21;7.20;;;2.50;;
58468;SDS011;44257;44.804;10.220;2023-11-19T01:35:47;4.35;;;2.42;;
58468;SDS011;44257;44.804;10.220;2023-11-19T01:38:13;6.22;;;2.88;;
58468;SDS011;44257;44.804;10.220;2023-11-19T01:40:39;4.95;;;2.40;;
58468;SDS011;44257;44.804;10.220;2023-11-19T01:43:05;5.03;;;2.50;;
58468;SDS011;44257;44.804;10.220;2023-11-19T01:45:31;3.75;;;2.30;;
58468;SDS011;44257;44.804;10.220;2023-11-19T01:48:00;4.88;;;2.00;;
58468;SDS011;44257;44.804;10.220;2023-11-19T01:50:29;6.15;;;2.40;;
58468;SDS011;44257;44.804;10.220;2023-11-19T01:52:57;4.03;;;2.20;;
58468;SDS011;44257;44.804;10.220;2023-11-19T01:55:24;5.35;;;2.08;;
58468;SDS011;44257;44.804;10.220;2023-11-19T01:57:52;5.38;;;2.45;;
58468;SDS011;44257;44.804;10.220;2023-11-19T02:00:20;3.90;;;2.10;;
58468;SDS011;44257;44.804;10.220;2023-11-19T02:02:46;3.83;;;2.17;;
58468;SDS011;44257;44.804;10.220;2023-11-19T02:05:13;6.05;;;2.50;;
58468;SDS011;44257;44.804;10.220;2023-11-19T02:07:40;7.18;;;2.60;;
58468;SDS011;44257;44.804;10.220;2023-11-19T02:10:06;4.78;;;2.10;;
58468;SDS011;44257;44.804;10.220;2023-11-19T02:12:38;5.53;;;2.50;;
58468;SDS011;44257;44.804;10.220;2023-11-19T02:15:08;5.07;;;2.10;;
58468;SDS011;44257;44.804;10.220;2023-11-19T02:17:35;5.05;;;2.20;;
58468;SDS011;44257;44.804;10.220;2023-11-19T02:20:05;4.80;;;2.50;;
58468;SDS011;44257;44.804;10.220;2023-11-19T02:22:36;5.38;;;3.25;;
58468;SDS011;44257;44.804;10.220;2023-11-19T02:25:12;4.80;;;2.20;;
58468;SDS011;44257;44.804;10.220;2023-11-19T02:28:01;7.05;;;3.10;;
58468;SDS011;44257;44.804;10.220;2023-11-19T02:30:28;7.05;;;2.30;;
58468;SDS011;44257;44.804;10.220;2023-11-19T02:32:58;5.53;;;2.22;;
58468;SDS011;44257;44.804;10.220;2023-11-19T02:37:53;5.53;;;2.40;;
58468;SDS011;44257;44.804;10.220;2023-11-19T02:40:19;3.67;;;2.10;;
58468;SDS011;44257;44.804;10.220;2023-11-19T02:42:49;3.83;;;2.25;;
58468;SDS011;44257;44.804;10.220;2023-11-19T02:45:15;9.75;;;2.70;;
58468;SDS011;44257;44.804;10.220;2023-11-19T02:47:41;5.25;;;2.83;;
58468;SDS011;44257;44.804;10.220;2023-11-19T02:50:09;4.60;;;2.22;;
58468;SDS011;44257;44.804;10.220;2023-11-19T02:52:43;6.10;;;2.50;;
58468;SDS011;44257;44.804;10.220;2023-11-19T02:55:11;4.73;;;2.40;;
58468;SDS011;44257;44.804;10.220;2023-11-19T02:57:40;6.28;;;2.65;;
58468;SDS011;44257;44.804;10.220;2023-11-19T03:00:16;4.90;;;2.30;;
58468;SDS011;44257;44.804;10.220;2023-11-19T03:02:43;5.22;;;2.42;;
58468;SDS011;44257;44.804;10.220;2023-11-19T03:05:19;4.30;;;2.30;;
58468;SDS011;44257;44.804;10.220;2023-11-19T03:07:45;9.85;;;2.80;;
58468;SDS011;44257;44.804;10.220;2023-11-19T03:10:11;5.15;;;2.28;;
58468;SDS011;44257;44.804;10.220;2023-11-19T03:12:39;4.05;;;2.20;;
58468;SDS011;44257;44.804;10.220;2023-11-19T03:15:06;5.10;;;2.40;;
58468;SDS011;44257;44.804;10.220;2023-11-19T03:17:32;4.38;;;2.33;;
58468;SDS011;44257;44.804;10.220;2023-11-19T03:19:59;4.32;;;2.42;;
58468;SDS011;44257;44.804;10.220;2023-11-19T03:22:26;5.15;;;2.20;;
58468;SDS011;44257;44.804;10.220;2023-11-19T03:24:52;3.70;;;2.22;;
58468;SDS011;44257;44.804;10.220;2023-11-19T03:27:18;5.32;;;2.22;;
58468;SDS011;44257;44.804;10.220;2023-11-19T03:29:43;4.80;;;2.30;;
58468;SDS011;44257;44.804;10.220;2023-11-19T03:32:09;6.35;;;2.78;;
58468;SDS011;44257;44.804;10.220;2023-11-19T03:34:36;4.88;;;2.40;;
58468;SDS011;44257;44.804;10.220;2023-11-19T03:37:02;6.40;;;2.00;;
58468;SDS011;44257;44.804;10.220;2023-11-19T03:39:29;4.35;;;2.28;;
58468;SDS011;44257;44.804;10.220;2023-11-19T03:41:54;5.53;;;2.17;;
58468;SDS011;44257;44.804;10.220;2023-11-19T03:44:20;4.40;;;2.30;;
58468;SDS011;44257;44.804;10.220;2023-11-19T03:46:46;6.00;;;2.97;;
58468;SDS011;44257;44.804;10.220;2023-11-19T03:49:12;5.72;;;2.15;;
58468;SDS011;44257;44.804;10.220;2023-11-19T03:51:38;5.32;;;1.83;;
58468;SDS011;44257;44.804;10.220;2023-11-19T03:54:04;4.55;;;1.92;;
58468;SDS011;44257;44.804;10.220;2023-11-19T03:56:32;4.32;;;2.33;;
58468;SDS011;44257;44.804;10.220;2023-11-19T03:58:58;4.55;;;2.65;;
58468;SDS011;44257;44.804;10.220;2023-11-19T04:01:23;7.75;;;2.35;;
58468;SDS011;44257;44.804;10.220;2023-11-19T04:03:49;3.05;;;1.70;;
58468;SDS011;44257;44.804;10.220;2023-11-19T04:06:15;3.40;;;2.00;;
58468;SDS011;44257;44.804;10.220;2023-11-19T04:08:41;3.42;;;1.95;;
58468;SDS011;44257;44.804;10.220;2023-11-19T04:11:07;4.18;;;1.92;;
58468;SDS011;44257;44.804;10.220;2023-11-19T04:13:34;4.07;;;2.10;;
58468;SDS011;44257;44.804;10.220;2023-11-19T04:16:00;3.85;;;2.00;;
58468;SDS011;44257;44.804;10.220;2023-11-19T04:18:26;4.60;;;2.38;;
58468;SDS011;44257;44.804;10.220;2023-11-19T04:20:52;5.47;;;2.10;;
58468;SDS011;44257;44.804;10.220;2023-11-19T04:23:18;4.50;;;2.20;;
58468;SDS011;44257;44.804;10.220;2023-11-19T04:25:43;5.25;;;1.77;;
58468;SDS011;44257;44.804;10.220;2023-11-19T04:28:09;7.63;;;2.00;;
58468;SDS011;44257;44.804;10.220;2023-11-19T04:30:35;3.22;;;1.80;;
58468;SDS011;44257;44.804;10.220;2023-11-19T04:33:02;3.95;;;1.67;;
58468;SDS011;44257;44.804;10.220;2023-11-19T04:35:28;4.60;;;2.03;;
58468;SDS011;44257;44.804;10.220;2023-11-19T04:37:54;4.20;;;1.65;;
58468;SDS011;44257;44.804;10.220;2023-11-19T04:40:22;2.83;;;1.33;;
58468;SDS011;44257;44.804;10.220;2023-11-19T04:42:48;6.13;;;2.33;;
58468;SDS011;44257;44.804;10.220;2023-11-19T04:45:14;6.15;;;2.08;;
58468;SDS011;44257;44.804;10.220;2023-11-19T04:47:41;2.78;;;1.60;;
58468;SDS011;44257;44.804;10.220;2023-11-19T04:50:07;2.95;;;1.67;;
58468;SDS011;44257;44.804;10.220;2023-11-19T04:52:37;4.07;;;1.90;;
58468;SDS011;44257;44.804;10.220;2023-11-19T04:55:05;3.50;;;1.80;;
58468;SDS011;44257;44.804;10.220;2023-11-19T04:57:31;4.28;;;2.00;;
58468;SDS011;44257;44.804;10.220;2023-11-19T04:59:58;3.83;;;1.58;;
58468;SDS011;44257;44.804;10.220;2023-11-19T05:02:24;5.35;;;1.88;;
58468;SDS011;44257;44.804;10.220;2023-11-19T05:04:50;4.95;;;1.77;;
58468;SDS011;44257;44.804;10.220;2023-11-19T05:07:16;4.32;;;1.83;;
58468;SDS011;44257;44.804;10.220;2023-11-19T05:09:41;3.10;;;1.80;;
58468;SDS011;44257;44.804;10.220;2023-11-19T05:12:08;3.38;;;1.65;;
58468;SDS011;44257;44.804;10.220;2023-11-19T05:14:37;6.63;;;1.75;;
58468;SDS011;44257;44.804;10.220;2023-11-19T05:17:03;4.63;;;1.70;;
58468;SDS011;44257;44.804;10.220;2023-11-19T05:19:29;2.90;;;1.42;;
58468;SDS011;44257;44.804;10.220;2023-11-19T05:21:55;5.15;;;2.08;;
58468;SDS011;44257;44.804;10.220;2023-11-19T05:24:22;3.85;;;1.83;;
58468;SDS011;44257;44.804;10.220;2023-11-19T05:26:48;5.90;;;1.92;;
58468;SDS011;44257;44.804;10.220;2023-11-19T05:29:15;5.40;;;1.67;;
58468;SDS011;44257;44.804;10.220;2023-11-19T05:31:42;3.00;;;1.77;;
58468;SDS011;44257;44.804;10.220;2023-11-19T05:34:08;5.68;;;2.00;;
58468;SDS011;44257;44.804;10.220;2023-11-19T05:36:33;3.83;;;1.95;;
58468;SDS011;44257;44.804;10.220;2023-11-19T05:38:59;3.90;;;1.45;;
58468;SDS011;44257;44.804;10.220;2023-11-19T05:41:25;3.20;;;1.80;;
58468;SDS011;44257;44.804;10.220;2023-11-19T05:43:51;4.18;;;2.10;;
58468;SDS011;44257;44.804;10.220;2023-11-19T05:46:16;3.90;;;1.50;;
58468;SDS011;44257;44.804;10.220;2023-11-19T05:48:42;4.90;;;2.10;;
58468;SDS011;44257;44.804;10.220;2023-11-19T05:51:08;5.13;;;1.95;;
58468;SDS011;44257;44.804;10.220;2023-11-19T05:53:35;3.63;;;2.05;;
58468;SDS011;44257;44.804;10.220;2023-11-19T05:56:00;3.78;;;2.13;;
58468;SDS011;44257;44.804;10.220;2023-11-19T05:58:29;5.20;;;1.70;;
58468;SDS011;44257;44.804;10.220;2023-11-19T06:00:55;3.80;;;2.00;;
58468;SDS011;44257;44.804;10.220;2023-11-19T06:03:21;5.85;;;2.20;;
58468;SDS011;44257;44.804;10.220;2023-11-19T06:05:48;7.50;;;2.10;;
58468;SDS011;44257;44.804;10.220;2023-11-19T06:08:14;4.20;;;1.90;;
58468;SDS011;44257;44.804;10.220;2023-11-19T06:10:40;5.90;;;2.47;;
58468;SDS011;44257;44.804;10.220;2023-11-19T06:13:07;15.57;;;4.80;;
58468;SDS011;44257;44.804;10.220;2023-11-19T06:15:35;5.97;;;2.17;;
58468;SDS011;44257;44.804;10.220;2023-11-19T06:18:01;7.43;;;2.35;;
58468;SDS011;44257;44.804;10.220;2023-11-19T06:20:29;5.53;;;2.10;;
58468;SDS011;44257;44.804;10.220;2023-11-19T06:22:55;5.47;;;2.25;;
58468;SDS011;44257;44.804;10.220;2023-11-19T06:25:22;3.30;;;1.90;;
58468;SDS011;44257;44.804;10.220;2023-11-19T06:27:49;5.47;;;2.50;;
58468;SDS011;44257;44.804;10.220;2023-11-19T06:30:16;6.85;;;2.63;;
58468;SDS011;44257;44.804;10.220;2023-11-19T06:32:42;6.65;;;3.10;;
58468;SDS011;44257;44.804;10.220;2023-11-19T06:35:08;7.05;;;2.70;;
58468;SDS011;44257;44.804;10.220;2023-11-19T06:37:38;5.47;;;2.60;;
58468;SDS011;44257;44.804;10.220;2023-11-19T06:40:04;7.40;;;3.00;;
58468;SDS011;44257;44.804;10.220;2023-11-19T06:42:30;4.35;;;2.20;;
58468;SDS011;44257;44.804;10.220;2023-11-19T06:44:56;8.50;;;2.58;;
58468;SDS011;44257;44.804;10.220;2023-11-19T06:47:25;5.00;;;2.45;;
58468;SDS011;44257;44.804;10.220;2023-11-19T06:49:52;8.32;;;2.60;;
58468;SDS011;44257;44.804;10.220;2023-11-19T06:52:18;5.43;;;2.35;;
58468;SDS011;44257;44.804;10.220;2023-11-19T06:54:44;5.75;;;2.03;;
58468;SDS011;44257;44.804;10.220;2023-11-19T06:57:13;4.22;;;2.10;;
58468;SDS011;44257;44.804;10.220;2023-11-19T06:59:39;4.53;;;2.15;;
58468;SDS011;44257;44.804;10.220;2023-11-19T07:02:05;4.72;;;1.83;;
58468;SDS011;44257;44.804;10.220;2023-11-19T07:04:32;5.63;;;2.00;;
58468;SDS011;44257;44.804;10.220;2023-11-19T07:07:01;5.15;;;2.22;;
58468;SDS011;44257;44.804;10.220;2023-11-19T07:09:27;10.27;;;2.33;;
58468;SDS011;44257;44.804;10.220;2023-11-19T07:11:52;4.10;;;2.20;;
58468;SDS011;44257;44.804;10.220;2023-11-19T07:14:19;4.32;;;2.10;;
58468;SDS011;44257;44.804;10.220;2023-11-19T07:16:45;6.45;;;2.15;;
58468;SDS011;44257;44.804;10.220;2023-11-19T07:19:15;4.50;;;1.95;;
58468;SDS011;44257;44.804;10.220;2023-11-19T07:21:41;7.97;;;2.33;;
58468;SDS011;44257;44.804;10.220;2023-11-19T07:24:09;4.82;;;1.80;;
58468;SDS011;44257;44.804;10.220;2023-11-19T07:26:35;4.55;;;2.05;;
58468;SDS011;44257;44.804;10.220;2023-11-19T07:29:02;5.90;;;2.50;;
58468;SDS011;44257;44.804;10.220;2023-11-19T07:31:28;6.95;;;2.90;;
58468;SDS011;44257;44.804;10.220;2023-11-19T07:33:54;4.53;;;2.25;;
58468;SDS011;44257;44.804;10.220;2023-11-19T07:36:20;4.65;;;1.88;;
58468;SDS011;44257;44.804;10.220;2023-11-19T07:38:46;5.72;;;1.90;;
58468;SDS011;44257;44.804;10.220;2023-11-19T07:41:16;9.48;;;2.38;;
58468;SDS011;44257;44.804;10.220;2023-11-19T07:43:45;5.53;;;2.10;;
58468;SDS011;44257;44.804;10.220;2023-11-19T07:46:16;6.20;;;2.75;;
58468;SDS011;44257;44.804;10.220;2023-11-19T07:48:48;6.97;;;3.53;;
58468;SDS011;44257;44.804;10.220;2023-11-19T07:51:14;9.05;;;3.25;;
58468;SDS011;44257;44.804;10.220;2023-11-19T07:53:40;4.13;;;2.38;;
58468;SDS011;44257;44.804;10.220;2023-11-19T07:56:09;5.85;;;2.25;;
58468;SDS011;44257;44.804;10.220;2023-11-19T07:58:37;6.18;;;2.42;;
58468;SDS011;44257;44.804;10.220;2023-11-19T08:01:03;5.90;;;2.53;;
58468;SDS011;44257;44.804;10.220;2023-11-19T08:03:30;5.90;;;2.45;;
58468;SDS011;44257;44.804;10.220;2023-11-19T08:05:56;6.88;;;2.10;;
58468;SDS011;44257;44.804;10.220;2023-11-19T08:08:22;7.00;;;2.22;;
58468;SDS011;44257;44.804;10.220;2023-11-19T08:10:48;7.45;;;2.63;;
58468;SDS011;44257;44.804;10.220;2023-11-19T08:13:14;5.57;;;2.35;;
58468;SDS011;44257;44.804;10.220;2023-11-19T08:15:40;4.63;;;2.63;;
58468;SDS011;44257;44.804;10.220;2023-11-19T08:18:06;4.65;;;2.15;;
58468;SDS011;44257;44.804;10.220;2023-11-19T08:20:32;5.07;;;2.85;;
58468;SDS011;44257;44.804;10.220;2023-11-19T08:22:59;3.92;;;2.17;;
58468;SDS011;44257;44.804;10.220;2023-11-19T08:25:25;7.38;;;2.25;;
58468;SDS011;44257;44.804;10.220;2023-11-19T08:27:51;5.47;;;2.30;;
58468;SDS011;44257;44.804;10.220;2023-11-19T08:30:18;9.30;;;2.08;;
58468;SDS011;44257;44.804;10.220;2023-11-19T08:32:44;4.00;;;1.98;;
58468;SDS011;44257;44.804;10.220;2023-11-19T08:35:11;8.13;;;1.80;;
58468;SDS011;44257;44.804;10.220;2023-11-19T08:37:38;3.50;;;1.83;;
58468;SDS011;44257;44.804;10.220;2023-11-19T08:40:04;4.70;;;2.20;;
58468;SDS011;44257;44.804;10.220;2023-11-19T08:42:32;5.28;;;2.70;;
58468;SDS011;44257;44.804;10.220;2023-11-19T08:44:58;4.10;;;2.10;;
58468;SDS011;44257;44.804;10.220;2023-11-19T08:47:24;5.47;;;2.42;;
58468;SDS011;44257;44.804;10.220;2023-11-19T08:49:51;5.18;;;2.45;;
58468;SDS011;44257;44.804;10.220;2023-11-19T08:54:48;5.13;;;2.53;;
58468;SDS011;44257;44.804;10.220;2023-11-19T08:57:14;5.03;;;2.50;;
58468;SDS011;44257;44.804;10.220;2023-11-19T08:59:39;4.75;;;3.45;;
58468;SDS011;44257;44.804;10.220;2023-11-19T09:02:07;4.72;;;2.50;;
58468;SDS011;44257;44.804;10.220;2023-11-19T09:04:34;4.90;;;2.75;;
58468;SDS011;44257;44.804;10.220;2023-11-19T09:07:01;4.88;;;2.80;;
58468;SDS011;44257;44.804;10.220;2023-11-19T09:09:28;7.57;;;3.70;;
58468;SDS011;44257;44.804;10.220;2023-11-19T09:11:55;10.40;;;4.18;;
58468;SDS011;44257;44.804;10.220;2023-11-19T09:14:22;9.23;;;4.13;;
58468;SDS011;44257;44.804;10.220;2023-11-19T09:16:52;5.80;;;4.10;;
58468;SDS011;44257;44.804;10.220;2023-11-19T09:19:20;9.70;;;5.10;;
58468;SDS011;44257;44.804;10.220;2023-11-19T09:21:46;8.90;;;4.70;;
58468;SDS011;44257;44.804;10.220;2023-11-19T09:24:14;156.93;;;15.13;;
58468;SDS011;44257;44.804;10.220;2023-11-19T09:26:41;11.45;;;6.10;;
58468;SDS011;44257;44.804;10.220;2023-11-19T09:29:08;16.90;;;5.63;;
58468;SDS011;44257;44.804;10.220;2023-11-19T09:31:38;63.15;;;10.60;;
58468;SDS011;44257;44.804;10.220;2023-11-19T09:34:04;12.45;;;6.57;;
58468;SDS011;44257;44.804;10.220;2023-11-19T09:36:31;21.38;;;6.90;;
58468;SDS011;44257;44.804;10.220;2023-11-19T09:38:59;17.25;;;9.20;;
58468;SDS011;44257;44.804;10.220;2023-11-19T09:41:29;22.15;;;12.18;;
58468;SDS011;44257;44.804;10.220;2023-11-19T09:43:56;13.70;;;7.05;;
58468;SDS011;44257;44.804;10.220;2023-11-19T09:46:22;7.82;;;5.85;;
58468;SDS011;44257;44.804;10.220;2023-11-19T09:48:52;9.80;;;5.97;;
58468;SDS011;44257;44.804;10.220;2023-11-19T09:53:50;11.23;;;7.03;;
58468;SDS011;44257;44.804;10.220;2023-11-19T09:56:16;13.52;;;7.57;;
58468;SDS011;44257;44.804;10.220;2023-11-19T09:58:42;11.05;;;7.55;;
58468;SDS011;44257;44.804;10.220;2023-11-19T10:01:08;30.70;;;19.35;;
58468;SDS011;44257;44.804;10.220;2023-11-19T10:03:37;10.25;;;7.78;;
58468;SDS011;44257;44.804;10.220;2023-11-19T10:06:08;9.93;;;7.35;;
58468;SDS011;44257;44.804;10.220;2023-11-19T10:08:36;9.40;;;6.88;;
58468;SDS011;44257;44.804;10.220;2023-11-19T10:11:04;11.27;;;6.22;;
58468;SDS011;44257;44.804;10.220;2023-11-19T10:13:37;9.50;;;7.07;;
58468;SDS011;44257;44.804;10.220;2023-11-19T10:16:13;9.80;;;6.45;;
58468;SDS011;44257;44.804;10.220;2023-11-19T10:18:44;8.23;;;5.72;;
58468;SDS011;44257;44.804;10.220;2023-11-19T10:21:17;18.92;;;8.02;;
58468;SDS011;44257;44.804;10.220;2023-11-19T10:23:50;11.40;;;6.97;;
58468;SDS011;44257;44.804;10.220;2023-11-19T10:26:17;12.40;;;6.10;;
58468;SDS011;44257;44.804;10.220;2023-11-19T10:28:45;11.15;;;6.43;;
58468;SDS011;44257;44.804;10.220;2023-11-19T10:31:15;11.13;;;6.32;;
58468;SDS011;44257;44.804;10.220;2023-11-19T10:33:42;10.77;;;6.53;;
58468;SDS011;44257;44.804;10.220;2023-11-19T10:36:10;9.57;;;6.25;;
58468;SDS011;44257;44.804;10.220;2023-11-19T10:38:40;8.93;;;6.38;;
58468;SDS011;44257;44.804;10.220;2023-11-19T10:41:06;9.85;;;6.05;;
58468;SDS011;44257;44.804;10.220;2023-11-19T10:43:44;11.20;;;6.00;;
58468;SDS011;44257;44.804;10.220;2023-11-19T10:46:11;9.50;;;6.85;;
58468;SDS011;44257;44.804;10.220;2023-11-19T10:48:38;11.00;;;6.25;;
58468;SDS011;44257;44.804;10.220;2023-11-19T10:51:05;7.35;;;5.22;;
58468;SDS011;44257;44.804;10.220;2023-11-19T10:53:38;8.10;;;5.90;;
58468;SDS011;44257;44.804;10.220;2023-11-19T10:56:06;7.50;;;5.43;;
58468;SDS011;44257;44.804;10.220;2023-11-19T10:58:35;13.43;;;7.10;;
58468;SDS011;44257;44.804;10.220;2023-11-19T11:01:08;12.60;;;7.28;;
58468;SDS011;44257;44.804;10.220;2023-11-19T11:03:41;8.73;;;5.65;;
58468;SDS011;44257;44.804;10.220;2023-11-19T11:06:11;9.80;;;5.90;;
58468;SDS011;44257;44.804;10.220;2023-11-19T11:08:38;9.40;;;6.13;;
58468;SDS011;44257;44.804;10.220;2023-11-19T11:11:05;11.18;;;6.68;;
58468;SDS011;44257;44.804;10.220;2023-11-19T11:13:32;7.30;;;5.68;;
58468;SDS011;44257;44.804;10.220;2023-11-19T11:15:59;9.85;;;6.28;;
58468;SDS011;44257;44.804;10.220;2023-11-19T11:18:25;9.40;;;6.55;;
58468;SDS011;44257;44.804;10.220;2023-11-19T11:20:52;12.02;;;6.65;;
58468;SDS011;44257;44.804;10.220;2023-11-19T11:29:26;14.07;;;7.68;;
58468;SDS011;44257;44.804;10.220;2023-11-19T11:34:55;11.10;;;8.20;;
58468;SDS011;44257;44.804;10.220;2023-11-19T11:37:47;12.88;;;8.05;;
58468;SDS011;44257;44.804;10.220;2023-11-19T11:40:17;13.00;;;8.65;;
58468;SDS011;44257;44.804;10.220;2023-11-19T11:42:44;13.60;;;9.05;;
58468;SDS011;44257;44.804;10.220;2023-11-19T11:45:11;11.95;;;8.63;;
58468;SDS011;44257;44.804;10.220;2023-11-19T11:48:04;12.60;;;8.52;;
58468;SDS011;44257;44.804;10.220;2023-11-19T11:50:24;14.63;;;9.27;;
58468;SDS011;44257;44.804;10.220;2023-11-19T11:55:35;14.02;;;8.68;;
58468;SDS011;44257;44.804;10.220;2023-11-19T11:58:10;14.13;;;8.05;;
58468;SDS011;44257;44.804;10.220;2023-11-19T12:00:39;11.98;;;8.27;;
58468;SDS011;44257;44.804;10.220;2023-11-19T12:03:06;15.02;;;8.50;;
58468;SDS011;44257;44.804;10.220;2023-11-19T12:05:33;13.55;;;9.18;;
58468;SDS011;44257;44.804;10.220;2023-11-19T12:08:06;11.80;;;8.75;;
58468;SDS011;44257;44.804;10.220;2023-11-19T12:10:57;11.52;;;7.68;;
58468;SDS011;44257;44.804;10.220;2023-11-19T12:13:23;11.23;;;7.38;;
58468;SDS011;44257;44.804;10.220;2023-11-19T12:18:28;10.45;;;6.80;;
58468;SDS011;44257;44.804;10.220;2023-11-19T12:20:57;10.10;;;7.63;;
58468;SDS011;44257;44.804;10.220;2023-11-19T12:23:28;10.32;;;7.13;;
58468;SDS011;44257;44.804;10.220;2023-11-19T12:25:55;11.18;;;7.57;;
58468;SDS011;44257;44.804;10.220;2023-11-19T12:28:22;11.52;;;7.32;;
58468;SDS011;44257;44.804;10.220;2023-11-19T12:30:49;9.90;;;6.18;;
58468;SDS011;44257;44.804;10.220;2023-11-19T12:33:16;9.00;;;6.20;;
58468;SDS011;44257;44.804;10.220;2023-11-19T12:35:42;9.13;;;5.80;;
58468;SDS011;44257;44.804;10.220;2023-11-19T12:38:23;11.27;;;6.03;;
58468;SDS011;44257;44.804;10.220;2023-11-19T12:41:07;11.68;;;6.43;;
58468;SDS011;44257;44.804;10.220;2023-11-19T12:43:36;7.80;;;4.15;;
58468;SDS011;44257;44.804;10.220;2023-11-19T12:46:20;7.95;;;4.10;;
58468;SDS011;44257;44.804;10.220;2023-11-19T12:48:50;6.25;;;4.18;;
58468;SDS011;44257;44.804;10.220;2023-11-19T12:51:18;8.82;;;4.43;;
58468;SDS011;44257;44.804;10.220;2023-11-19T12:53:48;8.50;;;4.85;;
58468;SDS011;44257;44.804;10.220;2023-11-19T12:56:15;6.57;;;4.38;;
58468;SDS011;44257;44.804;10.220;2023-11-19T12:58:41;6.55;;;3.90;;
58468;SDS011;44257;44.804;10.220;2023-11-19T13:01:08;9.00;;;5.07;;
58468;SDS011;44257;44.804;10.220;2023-11-19T13:03:37;8.13;;;4.45;;
58468;SDS011;44257;44.804;10.220;2023-11-19T13:06:04;11.00;;;5.10;;
58468;SDS011;44257;44.804;10.220;2023-11-19T13:11:06;6.88;;;3.67;;
58468;SDS011;44257;44.804;10.220;2023-11-19T13:13:54;8.60;;;5.32;;
58468;SDS011;44257;44.804;10.220;2023-11-19T13:16:25;9.40;;;5.45;;
58468;SDS011;44257;44.804;10.220;2023-11-19T13:18:52;16.20;;;6.88;;
58468;SDS011;44257;44.804;10.220;2023-11-19T13:21:19;8.85;;;4.82;;
58468;SDS011;44257;44.804;10.220;2023-11-19T13:23:44;10.73;;;4.47;;
58468;SDS011;44257;44.804;10.220;2023-11-19T13:26:10;8.35;;;4.53;;
58468;SDS011;44257;44.804;10.220;2023-11-19T13:28:37;8.63;;;4.55;;
58468;SDS011;44257;44.804;10.220;2023-11-19T13:31:03;7.55;;;4.50;;
58468;SDS011;44257;44.804;10.220;2023-11-19T13:33:29;7.03;;;4.65;;
58468;SDS011;44257;44.804;10.220;2023-11-19T13:35:55;7.47;;;4.60;;
58468;SDS011;44257;44.804;10.220;2023-11-19T13:38:22;8.57;;;4.35;;
58468;SDS011;44257;44.804;10.220;2023-11-19T13:40:51;8.98;;;4.75;;
58468;SDS011;44257;44.804;10.220;2023-11-19T13:43:17;8.57;;;4.88;;
58468;SDS011;44257;44.804;10.220;2023-11-19T13:45:42;8.43;;;4.82;;
58468;SDS011;44257;44.804;10.220;2023-11-19T13:48:08;6.95;;;4.18;;
58468;SDS011;44257;44.804;10.220;2023-11-19T13:50:34;7.78;;;4.90;;
58468;SDS011;44257;44.804;10.220;2023-11-19T13:53:00;8.27;;;4.47;;
58468;SDS011;44257;44.804;10.220;2023-11-19T13:55:26;5.90;;;4.15;;
58468;SDS011;44257;44.804;10.220;2023-11-19T13:57:52;7.40;;;4.40;;
58468;SDS011;44257;44.804;10.220;2023-11-19T14:00:18;6.38;;;4.10;;
58468;SDS011;44257;44.804;10.220;2023-11-19T14:02:45;11.48;;;4.90;;
58468;SDS011;44257;44.804;10.220;2023-11-19T14:05:12;6.47;;;4.45;;
58468;SDS011;44257;44.804;10.220;2023-11-19T14:07:39;7.18;;;4.20;;
58468;SDS011;44257;44.804;10.220;2023-11-19T14:10:06;5.38;;;3.30;;
58468;SDS011;44257;44.804;10.220;2023-11-19T14:12:34;7.45;;;3.70;;
58468;SDS011;44257;44.804;10.220;2023-11-19T14:15:01;8.27;;;3.72;;
58468;SDS011;44257;44.804;10.220;2023-11-19T14:17:27;9.05;;;3.70;;
58468;SDS011;44257;44.804;10.220;2023-11-19T14:19:53;6.93;;;3.45;;
58468;SDS011;44257;44.804;10.220;2023-11-19T14:22:19;9.90;;;4.15;;
58468;SDS011;44257;44.804;10.220;2023-11-19T14:24:44;9.07;;;4.60;;
58468;SDS011;44257;44.804;10.220;2023-11-19T14:27:11;6.55;;;3.70;;
58468;SDS011;44257;44.804;10.220;2023-11-19T14:29:36;8.23;;;4.20;;
58468;SDS011;44257;44.804;10.220;2023-11-19T14:32:03;7.28;;;4.00;;
58468;SDS011;44257;44.804;10.220;2023-11-19T14:34:32;8.32;;;4.32;;
58468;SDS011;44257;44.804;10.220;2023-11-19T14:36:58;8.27;;;4.97;;
58468;SDS011;44257;44.804;10.220;2023-11-19T14:39:24;9.20;;;4.72;;
58468;SDS011;44257;44.804;10.220;2023-11-19T14:41:50;10.32;;;4.60;;
58468;SDS011;44257;44.804;10.220;2023-11-19T14:44:17;7.13;;;4.60;;
58468;SDS011;44257;44.804;10.220;2023-11-19T14:46:45;7.18;;;4.43;;
58468;SDS011;44257;44.804;10.220;2023-11-19T14:49:11;7.00;;;4.13;;
58468;SDS011;44257;44.804;10.220;2023-11-19T14:51:37;8.75;;;4.40;;
58468;SDS011;44257;44.804;10.220;2023-11-19T14:54:06;6.65;;;3.95;;
58468;SDS011;44257;44.804;10.220;2023-11-19T14:56:32;6.47;;;3.67;;
58468;SDS011;44257;44.804;10.220;2023-11-19T14:58:58;6.10;;;3.78;;